Woodside, California
Current Conditions -  °F | °C
As of 5:10 AM on Friday 28 Nov 2014 (Local Time) from KSQL Reporting Station
Haze Haze  
Wind Chill: 50°   Ceiling: 300
Heat Index: 50°   Visibility: 1.7mi
Dew Point: 48°   Wind: 0mph
Humidity: 94%   Direction: NA
Pressure: 30.03"   Gusts: NA
Location:  37.4497°N, 122.329°W
Report Text: KSQL 281310Z AUTO 00000KT 1 3/4SM BR OVC003 10/09 A3003 RMK AO2
Loading
Personal Weather Stations






























Interactive Weather Map New forecast layout! Learn more

10-Day Weather Forecast

Advertisements
Track Severe Weather on mobile